createdAt,value
2017-09-29T00:00:07.456Z,18.31
2017-09-29T00:01:08.879Z,18.28
2017-09-29T00:02:10.298Z,18.25
2017-09-29T00:03:11.731Z,18.28
2017-09-29T00:04:13.154Z,18.21
2017-09-29T00:05:14.579Z,18.25
2017-09-29T00:06:16.001Z,18.39
2017-09-29T00:07:17.418Z,18.25
2017-09-29T00:08:18.838Z,18.37
2017-09-29T00:09:20.256Z,18.34
2017-09-29T00:10:21.678Z,18.39
2017-09-29T00:11:23.103Z,18.40
2017-09-29T00:12:24.525Z,18.47
2017-09-29T00:13:25.944Z,18.34
2017-09-29T00:14:27.371Z,18.22
2017-09-29T00:15:28.785Z,18.34
2017-09-29T00:16:30.210Z,18.24
2017-09-29T00:17:31.672Z,18.33
2017-09-29T00:18:33.106Z,18.28
2017-09-29T00:19:34.536Z,18.22
2017-09-29T00:20:35.952Z,18.37
2017-09-29T00:21:37.383Z,18.42
2017-09-29T00:22:38.808Z,18.46
2017-09-29T00:23:40.230Z,18.37
2017-09-29T00:24:41.668Z,18.29
2017-09-29T00:25:43.084Z,18.25
2017-09-29T00:26:44.503Z,18.22
2017-09-29T00:27:45.933Z,18.34
2017-09-29T00:28:47.358Z,18.31
2017-09-29T00:29:48.774Z,18.22
2017-09-29T00:30:50.197Z,18.18
2017-09-29T00:31:51.626Z,18.15
2017-09-29T00:32:53.050Z,18.21
2017-09-29T00:33:54.468Z,18.18
2017-09-29T00:34:55.895Z,18.18
2017-09-29T00:35:57.318Z,18.34
2017-09-29T00:36:58.742Z,18.33
2017-09-29T00:38:00.194Z,18.28
2017-09-29T00:39:01.614Z,18.22
2017-09-29T00:40:03.028Z,18.24
2017-09-29T00:41:04.444Z,18.18
2017-09-29T00:42:05.859Z,18.33
2017-09-29T00:43:07.278Z,18.29
2017-09-29T00:44:08.710Z,18.27
2017-09-29T00:45:10.143Z,18.33
2017-09-29T00:46:11.569Z,18.31
2017-09-29T00:47:12.991Z,18.18
2017-09-29T00:48:14.413Z,18.27
2017-09-29T00:49:15.834Z,18.15
2017-09-29T00:50:17.268Z,18.24
2017-09-29T00:51:18.683Z,18.31
2017-09-29T00:52:20.111Z,18.37
2017-09-29T00:53:21.536Z,18.31
2017-09-29T00:54:22.958Z,18.10
2017-09-29T00:55:24.380Z,18.02
2017-09-29T00:56:25.796Z,18.03
2017-09-29T00:57:27.217Z,18.03
2017-09-29T00:58:28.644Z,18.17
2017-09-29T00:59:30.068Z,18.18
2017-09-29T01:00:31.499Z,18.13
2017-09-29T01:01:32.922Z,18.17
2017-09-29T01:02:34.363Z,17.97
2017-09-29T01:03:35.779Z,17.92
2017-09-29T01:04:37.205Z,17.99
2017-09-29T01:05:38.639Z,18.00
2017-09-29T01:06:40.058Z,18.07
2017-09-29T01:07:41.478Z,18.04
2017-09-29T01:08:42.895Z,18.07
2017-09-29T01:09:44.316Z,18.10
2017-09-29T01:10:45.732Z,18.06
2017-09-29T01:11:47.195Z,18.17
2017-09-29T01:12:48.611Z,18.27
2017-09-29T01:13:50.026Z,18.31
2017-09-29T01:14:51.448Z,18.34
2017-09-29T01:15:52.866Z,18.44
2017-09-29T01:16:54.287Z,18.39
2017-09-29T01:17:55.718Z,18.36
2017-09-29T01:18:57.147Z,18.34
2017-09-29T01:19:58.565Z,18.46
2017-09-29T01:20:59.997Z,18.37
2017-09-29T01:22:01.415Z,18.25
2017-09-29T01:23:02.848Z,18.34
2017-09-29T01:24:04.272Z,18.27
2017-09-29T01:25:05.701Z,18.28
2017-09-29T01:26:07.117Z,18.27
2017-09-29T01:27:08.536Z,18.24
2017-09-29T01:28:09.968Z,18.21
2017-09-29T01:29:11.387Z,18.24
2017-09-29T01:30:12.806Z,18.13
2017-09-29T01:31:14.224Z,18.18
2017-09-29T01:32:15.647Z,18.27
2017-09-29T01:33:17.084Z,18.33
2017-09-29T01:34:18.497Z,18.22
2017-09-29T01:35:19.915Z,18.28
2017-09-29T01:36:21.332Z,18.15
2017-09-29T01:37:22.750Z,18.36
2017-09-29T01:38:24.167Z,18.31
2017-09-29T01:39:25.595Z,18.25
2017-09-29T01:40:27.018Z,18.25
2017-09-29T01:41:28.441Z,18.21
2017-09-29T01:42:29.861Z,18.21
2017-09-29T01:43:31.293Z,18.18
2017-09-29T01:44:32.715Z,18.21
2017-09-29T01:45:34.140Z,18.17
2017-09-29T01:46:35.579Z,18.04
2017-09-29T01:47:37.000Z,18.12
2017-09-29T01:48:38.421Z,18.31
2017-09-29T01:49:39.846Z,18.25
2017-09-29T01:50:41.267Z,18.31
2017-09-29T01:51:42.688Z,18.17
2017-09-29T01:52:44.103Z,18.21
2017-09-29T01:53:45.522Z,18.18
2017-09-29T01:54:46.947Z,18.21
2017-09-29T01:55:48.370Z,18.28
2017-09-29T01:56:49.806Z,18.31
2017-09-29T01:57:51.226Z,18.31
2017-09-29T01:58:52.648Z,18.22
2017-09-29T01:59:54.089Z,18.36
2017-09-29T02:00:55.509Z,18.37
2017-09-29T02:01:56.930Z,18.47
2017-09-29T02:02:58.354Z,18.46
2017-09-29T02:03:59.772Z,18.50
2017-09-29T02:05:01.197Z,18.37
2017-09-29T02:06:02.624Z,18.37
2017-09-29T02:07:04.047Z,18.37
2017-09-29T02:08:05.469Z,18.37
2017-09-29T02:09:06.889Z,18.44
2017-09-29T02:10:08.307Z,18.39
2017-09-29T02:11:09.735Z,18.40
2017-09-29T02:12:11.167Z,18.47
2017-09-29T02:13:12.588Z,18.50
2017-09-29T02:14:14.005Z,18.46
2017-09-29T02:15:15.419Z,18.54
2017-09-29T02:16:16.847Z,18.44
2017-09-29T02:17:18.272Z,18.39
2017-09-29T02:18:19.729Z,18.34
2017-09-29T02:19:21.115Z,18.25
2017-09-29T02:20:22.533Z,18.21
2017-09-29T02:21:23.963Z,18.13
2017-09-29T02:22:25.387Z,18.17
2017-09-29T02:23:26.810Z,18.03
2017-09-29T02:24:28.233Z,18.06
2017-09-29T02:25:29.652Z,18.02
2017-09-29T02:26:31.078Z,18.06
2017-09-29T02:27:32.492Z,18.19
2017-09-29T02:28:33.913Z,18.25
2017-09-29T02:29:35.336Z,18.31
2017-09-29T02:30:36.754Z,18.47
2017-09-29T02:31:38.175Z,18.44
2017-09-29T02:32:39.599Z,18.40
2017-09-29T02:33:41.017Z,18.46
2017-09-29T02:34:42.440Z,18.42
2017-09-29T02:35:43.853Z,18.29
2017-09-29T02:36:45.269Z,18.28
2017-09-29T02:37:46.686Z,18.27
2017-09-29T02:38:48.113Z,18.19
2017-09-29T02:39:49.538Z,18.28
2017-09-29T02:40:50.962Z,18.17
2017-09-29T02:41:52.382Z,18.18
2017-09-29T02:42:53.807Z,18.18
2017-09-29T02:43:55.229Z,18.22
2017-09-29T02:44:56.647Z,18.21
2017-09-29T02:45:58.067Z,18.21
2017-09-29T02:46:59.531Z,18.17
2017-09-29T02:48:00.960Z,17.99
2017-09-29T02:49:02.385Z,18.12
2017-09-29T02:50:03.811Z,18.10
2017-09-29T02:51:05.231Z,18.19
2017-09-29T02:52:06.657Z,18.13
2017-09-29T02:53:08.079Z,18.18
2017-09-29T02:54:09.504Z,18.22
2017-09-29T02:55:10.922Z,18.39
2017-09-29T02:56:12.347Z,18.37
2017-09-29T02:57:13.762Z,18.57
2017-09-29T02:58:15.186Z,18.47
2017-09-29T02:59:16.612Z,18.55
2017-09-29T03:00:18.040Z,18.61
2017-09-29T03:01:19.461Z,18.49
2017-09-29T03:02:20.886Z,18.52
2017-09-29T03:03:22.319Z,18.39
2017-09-29T03:04:23.734Z,18.31
2017-09-29T03:05:25.160Z,18.36
2017-09-29T03:06:26.588Z,18.34
2017-09-29T03:07:28.009Z,18.29
2017-09-29T03:08:29.422Z,18.34
2017-09-29T03:09:30.845Z,18.37
2017-09-29T03:10:32.278Z,18.34
2017-09-29T03:11:33.702Z,18.24
2017-09-29T03:12:35.125Z,18.21
2017-09-29T03:13:36.548Z,18.39
2017-09-29T03:14:37.971Z,18.37
2017-09-29T03:15:39.390Z,18.31
2017-09-29T03:16:40.809Z,18.29
2017-09-29T03:17:42.234Z,18.24
2017-09-29T03:18:43.665Z,18.17
2017-09-29T03:19:45.086Z,18.07
2017-09-29T03:20:46.517Z,18.15
2017-09-29T03:21:47.952Z,18.17
2017-09-29T03:22:49.376Z,18.04
2017-09-29T03:23:50.810Z,18.06
2017-09-29T03:24:52.234Z,18.12
2017-09-29T03:25:53.650Z,18.13
2017-09-29T03:26:55.067Z,18.28
2017-09-29T03:27:56.487Z,18.36
2017-09-29T03:28:57.906Z,18.31
2017-09-29T03:29:59.330Z,18.24
2017-09-29T03:31:00.744Z,18.21
2017-09-29T03:32:02.165Z,18.21
2017-09-29T03:33:03.589Z,18.34
2017-09-29T03:34:05.009Z,18.25
2017-09-29T03:35:06.439Z,18.21
2017-09-29T03:36:07.926Z,18.15
2017-09-29T03:37:09.357Z,18.09
2017-09-29T03:38:10.779Z,18.06
2017-09-29T03:39:12.195Z,18.12
2017-09-29T03:40:13.615Z,18.07
2017-09-29T03:41:15.034Z,18.17
2017-09-29T03:42:16.453Z,18.22
2017-09-29T03:43:17.872Z,18.12
2017-09-29T03:44:19.296Z,18.06
2017-09-29T03:45:20.711Z,18.07
2017-09-29T03:46:22.128Z,18.07
2017-09-29T03:47:23.547Z,18.09
2017-09-29T03:48:24.977Z,18.03
2017-09-29T03:49:26.398Z,18.07
2017-09-29T03:50:27.817Z,18.02
2017-09-29T03:51:29.233Z,18.07
2017-09-29T03:52:30.657Z,18.03
2017-09-29T03:53:32.090Z,18.06
2017-09-29T03:54:33.509Z,18.07
2017-09-29T03:55:34.926Z,18.02
2017-09-29T03:56:36.346Z,17.94
2017-09-29T03:57:37.770Z,18.06
2017-09-29T03:58:39.193Z,18.19
2017-09-29T03:59:40.614Z,18.13
2017-09-29T04:00:42.039Z,18.36
2017-09-29T04:01:43.454Z,18.39
2017-09-29T04:02:44.877Z,18.37
2017-09-29T04:03:46.292Z,18.34
2017-09-29T04:04:47.713Z,18.28
2017-09-29T04:05:49.134Z,18.21
2017-09-29T04:06:50.556Z,18.22
2017-09-29T04:07:51.978Z,18.22
2017-09-29T04:08:53.399Z,18.27
2017-09-29T04:09:54.813Z,18.22
2017-09-29T04:10:56.231Z,18.33
2017-09-29T04:11:57.662Z,18.22
2017-09-29T04:12:59.085Z,18.39
2017-09-29T04:14:00.509Z,18.36
2017-09-29T04:15:01.927Z,18.22
2017-09-29T04:16:03.343Z,18.24
2017-09-29T04:17:04.771Z,18.24
2017-09-29T04:18:06.199Z,18.19
2017-09-29T04:19:07.620Z,18.25
2017-09-29T04:20:09.047Z,18.09
2017-09-29T04:21:10.464Z,18.09
2017-09-29T04:22:11.888Z,18.12
2017-09-29T04:23:13.311Z,18.03
2017-09-29T04:24:14.739Z,18.00
2017-09-29T04:25:16.160Z,18.09
2017-09-29T04:26:17.579Z,18.18
2017-09-29T04:27:18.997Z,18.27
2017-09-29T04:28:20.416Z,18.37
2017-09-29T04:29:21.836Z,18.34
2017-09-29T04:30:23.259Z,18.40
2017-09-29T04:31:24.690Z,18.42
2017-09-29T04:32:26.107Z,18.33
2017-09-29T04:33:27.530Z,18.39
2017-09-29T04:34:28.946Z,18.34
2017-09-29T04:35:30.364Z,18.33
2017-09-29T04:36:31.782Z,18.25
2017-09-29T04:37:33.204Z,18.28
2017-09-29T04:38:34.632Z,18.33
2017-09-29T04:39:36.050Z,18.25
2017-09-29T04:40:37.476Z,18.33
2017-09-29T04:41:38.899Z,18.29
2017-09-29T04:42:40.325Z,18.34
2017-09-29T04:43:41.747Z,18.34
2017-09-29T04:44:43.166Z,18.43
2017-09-29T04:45:44.589Z,18.40
2017-09-29T04:46:46.006Z,18.42
2017-09-29T04:47:47.429Z,18.37
2017-09-29T04:48:48.848Z,18.46
2017-09-29T04:49:50.275Z,18.49
2017-09-29T04:50:51.693Z,18.37
2017-09-29T04:51:53.114Z,18.40
2017-09-29T04:52:54.544Z,18.31
2017-09-29T04:53:55.966Z,18.37
2017-09-29T04:54:57.393Z,18.36
2017-09-29T04:55:58.817Z,18.36
2017-09-29T04:57:00.240Z,18.31
2017-09-29T04:58:01.656Z,18.25
2017-09-29T04:59:03.087Z,18.39
2017-09-29T05:00:04.516Z,18.33
2017-09-29T05:01:05.937Z,18.31
2017-09-29T05:02:07.357Z,18.40
2017-09-29T05:03:08.769Z,18.43
2017-09-29T05:04:10.201Z,18.47
2017-09-29T05:05:11.618Z,18.37
2017-09-29T05:06:13.044Z,18.54
2017-09-29T05:07:14.469Z,18.47
2017-09-29T05:08:15.893Z,18.49
2017-09-29T05:09:17.415Z,18.44
2017-09-29T05:10:18.837Z,18.44
2017-09-29T05:11:20.255Z,18.39
2017-09-29T05:12:21.678Z,18.34
2017-09-29T05:13:23.096Z,18.34
2017-09-29T05:14:24.518Z,18.22
2017-09-29T05:15:25.949Z,18.22
2017-09-29T05:16:27.374Z,18.19
2017-09-29T05:17:28.803Z,18.25
2017-09-29T05:18:30.219Z,18.37
2017-09-29T05:19:31.640Z,18.43
2017-09-29T05:20:33.068Z,18.47
2017-09-29T05:21:34.486Z,18.37
2017-09-29T05:22:35.906Z,18.34
2017-09-29T05:23:37.324Z,18.28
2017-09-29T05:24:38.755Z,18.31
2017-09-29T05:25:40.172Z,18.27
2017-09-29T05:26:41.598Z,18.39
2017-09-29T05:27:43.016Z,18.22
2017-09-29T05:28:44.436Z,18.25
2017-09-29T05:29:45.861Z,18.42
2017-09-29T05:30:47.287Z,18.42
2017-09-29T05:31:48.718Z,18.47
2017-09-29T05:32:50.144Z,18.57
2017-09-29T05:33:51.578Z,18.49
2017-09-29T05:34:52.994Z,18.58
2017-09-29T05:35:54.420Z,18.57
2017-09-29T05:36:55.840Z,18.49
2017-09-29T05:37:57.259Z,18.61
2017-09-29T05:38:58.673Z,18.44
2017-09-29T05:40:00.114Z,18.44
2017-09-29T05:41:01.545Z,18.42
2017-09-29T05:42:02.964Z,18.43
2017-09-29T05:43:04.388Z,18.33
2017-09-29T05:44:05.836Z,18.34
2017-09-29T05:45:07.229Z,18.34
2017-09-29T05:46:08.651Z,18.29
2017-09-29T05:47:10.081Z,18.29
2017-09-29T05:48:11.502Z,18.44
2017-09-29T05:49:12.924Z,18.36
2017-09-29T05:50:14.367Z,18.40
2017-09-29T05:51:15.785Z,18.37
2017-09-29T05:52:17.208Z,18.40
2017-09-29T05:53:18.634Z,18.50
2017-09-29T05:54:20.062Z,18.43
2017-09-29T05:55:21.484Z,18.46
2017-09-29T05:56:22.906Z,18.42
2017-09-29T05:57:24.328Z,18.46
2017-09-29T05:58:25.746Z,18.39
2017-09-29T05:59:27.175Z,18.39
2017-09-29T06:00:28.607Z,18.39
2017-09-29T06:01:30.049Z,18.47
2017-09-29T06:02:31.466Z,18.37
2017-09-29T06:03:32.890Z,18.40
2017-09-29T06:04:34.321Z,18.40
2017-09-29T06:05:35.745Z,18.50
2017-09-29T06:06:37.204Z,18.44
2017-09-29T06:07:38.622Z,18.46
2017-09-29T06:08:40.048Z,18.58
2017-09-29T06:09:41.465Z,18.55
2017-09-29T06:10:42.885Z,18.46
2017-09-29T06:11:44.304Z,18.47
2017-09-29T06:12:45.726Z,18.46
2017-09-29T06:13:47.152Z,18.50
2017-09-29T06:14:48.571Z,18.47
2017-09-29T06:15:49.989Z,18.47
2017-09-29T06:16:51.407Z,18.43
2017-09-29T06:17:52.821Z,18.49
2017-09-29T06:18:54.257Z,18.40
2017-09-29T06:19:55.690Z,18.42
2017-09-29T06:20:57.118Z,18.46
2017-09-29T06:21:58.538Z,18.49
2017-09-29T06:22:59.964Z,18.54
2017-09-29T06:24:01.391Z,18.62
2017-09-29T06:25:02.821Z,18.47
2017-09-29T06:26:04.248Z,18.50
2017-09-29T06:27:05.670Z,18.39
2017-09-29T06:28:07.082Z,18.29
2017-09-29T06:29:08.512Z,18.36
2017-09-29T06:30:09.935Z,18.47
2017-09-29T06:31:11.363Z,18.46
2017-09-29T06:32:12.792Z,18.42
2017-09-29T06:33:14.224Z,18.34
2017-09-29T06:34:15.645Z,18.21
2017-09-29T06:35:17.069Z,18.28
2017-09-29T06:36:18.489Z,18.29
2017-09-29T06:37:19.917Z,18.28
2017-09-29T06:38:21.330Z,18.33
2017-09-29T06:39:22.755Z,18.31
2017-09-29T06:40:24.181Z,18.22
2017-09-29T06:41:25.607Z,18.36
2017-09-29T06:42:27.032Z,18.37
2017-09-29T06:43:28.453Z,18.44
2017-09-29T06:44:29.881Z,18.49
2017-09-29T06:45:31.318Z,18.64
2017-09-29T06:46:32.741Z,18.65
2017-09-29T06:47:34.172Z,18.62
2017-09-29T06:48:35.587Z,18.65
2017-09-29T06:49:37.014Z,18.62
2017-09-29T06:50:38.448Z,18.65
2017-09-29T06:51:39.868Z,18.83
2017-09-29T06:52:41.336Z,18.73
2017-09-29T06:53:42.758Z,18.77
2017-09-29T06:54:44.201Z,18.86
2017-09-29T06:55:45.688Z,18.72
2017-09-29T06:56:47.115Z,18.72
2017-09-29T06:57:48.542Z,18.74
2017-09-29T06:58:49.976Z,18.82
2017-09-29T06:59:51.418Z,18.74
2017-09-29T07:00:52.841Z,18.80
2017-09-29T07:01:54.259Z,18.87
2017-09-29T07:02:55.689Z,18.94
2017-09-29T07:03:57.107Z,18.90
2017-09-29T07:04:58.527Z,18.86
2017-09-29T07:05:59.950Z,18.94
2017-09-29T07:07:01.377Z,18.94
2017-09-29T07:08:02.795Z,18.97
2017-09-29T07:09:04.220Z,18.92
2017-09-29T07:10:05.637Z,18.98
2017-09-29T07:11:07.059Z,18.86
2017-09-29T07:12:08.477Z,18.79
2017-09-29T07:13:09.912Z,18.76
2017-09-29T07:14:11.337Z,18.84
2017-09-29T07:15:12.760Z,18.86
2017-09-29T07:16:14.180Z,18.97
2017-09-29T07:17:15.609Z,18.82
2017-09-29T07:18:17.041Z,18.82
2017-09-29T07:19:18.473Z,18.74
2017-09-29T07:20:19.899Z,18.72
2017-09-29T07:21:21.320Z,18.79
2017-09-29T07:22:22.739Z,18.74
2017-09-29T07:23:24.172Z,18.84
2017-09-29T07:24:25.614Z,18.82
2017-09-29T07:25:27.032Z,18.86
2017-09-29T07:26:28.458Z,18.92
2017-09-29T07:27:29.891Z,18.94
2017-09-29T07:28:31.316Z,19.05
2017-09-29T07:29:32.746Z,18.97
2017-09-29T07:30:34.175Z,19.08
2017-09-29T07:31:35.602Z,18.84
2017-09-29T07:32:37.032Z,18.72
2017-09-29T07:33:38.452Z,18.77
2017-09-29T07:34:39.890Z,18.76
2017-09-29T07:35:41.314Z,18.84
2017-09-29T07:36:42.739Z,19.06
2017-09-29T07:37:44.159Z,18.97
2017-09-29T07:38:45.581Z,19.06
2017-09-29T07:39:47.004Z,19.10
2017-09-29T07:40:48.424Z,19.10
2017-09-29T07:41:49.842Z,19.13
2017-09-29T07:42:51.272Z,19.08
2017-09-29T07:43:52.704Z,19.10
2017-09-29T07:44:54.126Z,19.11
2017-09-29T07:45:55.554Z,19.21
2017-09-29T07:46:56.972Z,19.13
2017-09-29T07:47:58.413Z,19.23
2017-09-29T07:48:59.841Z,19.32
2017-09-29T07:50:01.270Z,19.13
2017-09-29T07:51:02.702Z,19.08
2017-09-29T07:52:04.883Z,19.38
2017-09-29T07:53:06.312Z,19.29
2017-09-29T07:54:07.745Z,19.13
2017-09-29T07:55:09.162Z,19.18
2017-09-29T07:56:10.592Z,19.17
2017-09-29T07:57:12.016Z,19.17
2017-09-29T07:58:13.446Z,19.25
2017-09-29T07:59:14.875Z,19.21
2017-09-29T08:00:16.313Z,19.32
2017-09-29T08:01:17.731Z,19.32
2017-09-29T08:02:19.161Z,19.33
2017-09-29T08:03:20.594Z,19.31
2017-09-29T08:04:22.023Z,19.42
2017-09-29T08:05:23.442Z,19.46
2017-09-29T08:06:24.871Z,19.55
2017-09-29T08:07:26.293Z,19.47
2017-09-29T08:08:27.726Z,19.46
2017-09-29T08:09:29.143Z,19.40
2017-09-29T08:10:30.568Z,19.55
2017-09-29T08:11:31.988Z,19.55
2017-09-29T08:12:33.422Z,19.51
2017-09-29T08:13:34.852Z,19.54
2017-09-29T08:14:36.277Z,19.51
2017-09-29T08:15:37.705Z,19.38
2017-09-29T08:16:39.150Z,19.13
2017-09-29T08:17:40.576Z,19.25
2017-09-29T08:18:42.004Z,19.21
2017-09-29T08:19:43.440Z,19.28
2017-09-29T08:20:44.864Z,19.21
2017-09-29T08:21:46.294Z,19.33
2017-09-29T08:22:47.719Z,19.35
2017-09-29T08:23:49.157Z,19.40
2017-09-29T08:24:50.584Z,19.36
2017-09-29T08:25:52.001Z,19.47
2017-09-29T08:26:53.433Z,19.46
2017-09-29T08:27:54.860Z,19.53
2017-09-29T08:28:56.293Z,19.58
2017-09-29T08:29:57.718Z,19.57
2017-09-29T08:30:59.156Z,19.42
2017-09-29T08:32:00.583Z,19.55
2017-09-29T08:33:02.007Z,19.73
2017-09-29T08:34:03.654Z,19.84
2017-09-29T08:35:04.938Z,19.84
2017-09-29T08:36:06.369Z,19.73
2017-09-29T08:37:07.796Z,19.79
2017-09-29T08:38:09.217Z,19.58
2017-09-29T08:39:10.642Z,19.58
2017-09-29T08:40:12.083Z,19.58
2017-09-29T08:41:13.507Z,19.58
2017-09-29T08:42:14.933Z,19.60
2017-09-29T08:43:16.363Z,19.48
2017-09-29T08:44:17.793Z,19.48
2017-09-29T08:45:19.225Z,19.54
2017-09-29T08:46:20.651Z,19.60
2017-09-29T08:47:22.279Z,19.73
2017-09-29T08:48:23.699Z,19.87
2017-09-29T08:49:25.179Z,19.93
2017-09-29T08:50:26.616Z,19.88
2017-09-29T08:51:28.218Z,19.84
2017-09-29T08:52:29.833Z,20.00
2017-09-29T08:53:31.559Z,19.95
2017-09-29T08:54:33.272Z,19.95
2017-09-29T08:55:34.696Z,19.95
2017-09-29T08:56:36.119Z,20.02
2017-09-29T08:57:37.552Z,20.21
2017-09-29T08:58:38.984Z,20.20
2017-09-29T08:59:40.571Z,20.34
2017-09-29T09:00:41.971Z,20.42
2017-09-29T09:01:43.399Z,20.38
2017-09-29T09:02:44.831Z,20.16
2017-09-29T09:03:46.259Z,20.25
2017-09-29T09:04:47.680Z,20.35
2017-09-29T09:05:49.102Z,20.49
2017-09-29T09:06:50.538Z,20.39
2017-09-29T09:07:52.009Z,20.54
2017-09-29T09:08:53.680Z,20.61
2017-09-29T09:09:55.101Z,20.49
2017-09-29T09:10:56.533Z,20.64
2017-09-29T09:11:57.976Z,20.62
2017-09-29T09:12:59.400Z,20.65
2017-09-29T09:14:01.186Z,20.66
2017-09-29T09:15:02.617Z,20.71
2017-09-29T09:16:04.044Z,20.72
2017-09-29T09:17:05.485Z,20.62
2017-09-29T09:18:06.947Z,20.79
2017-09-29T09:19:08.381Z,20.69
2017-09-29T09:20:09.829Z,20.76
2017-09-29T09:21:11.257Z,20.79
2017-09-29T09:22:12.684Z,20.98
2017-09-29T09:23:14.115Z,20.83
2017-09-29T09:24:15.537Z,20.99
2017-09-29T09:25:16.966Z,20.84
2017-09-29T09:26:18.403Z,20.79
2017-09-29T09:27:19.843Z,20.68
2017-09-29T09:28:21.270Z,20.68
2017-09-29T09:29:22.726Z,20.96
2017-09-29T09:30:24.144Z,20.98
2017-09-29T09:31:25.579Z,21.08
2017-09-29T09:32:26.999Z,21.02
2017-09-29T09:33:28.485Z,20.99
2017-09-29T09:34:29.909Z,21.01
2017-09-29T09:35:31.347Z,20.91
2017-09-29T09:36:32.773Z,21.13
2017-09-29T09:37:34.198Z,20.99
2017-09-29T09:38:35.686Z,21.06
2017-09-29T09:39:37.125Z,21.08
2017-09-29T09:40:38.546Z,21.23
2017-09-29T09:41:39.981Z,21.41
2017-09-29T09:42:41.412Z,21.39
2017-09-29T09:43:42.850Z,21.50
2017-09-29T09:44:44.275Z,21.42
2017-09-29T09:45:45.712Z,21.34
2017-09-29T09:46:47.140Z,21.46
2017-09-29T09:47:48.570Z,21.32
2017-09-29T09:48:50.166Z,21.38
2017-09-29T09:49:51.602Z,21.16
2017-09-29T09:50:53.028Z,21.02
2017-09-29T09:51:54.468Z,20.99
2017-09-29T09:52:55.902Z,21.23
2017-09-29T09:53:57.348Z,21.21
2017-09-29T09:54:58.785Z,21.34
2017-09-29T09:56:00.218Z,21.35
2017-09-29T09:57:01.651Z,21.27
2017-09-29T09:58:03.093Z,21.26
2017-09-29T09:59:04.519Z,21.38
2017-09-29T10:00:05.964Z,21.42
2017-09-29T10:01:07.389Z,21.48
2017-09-29T10:02:08.825Z,21.42
2017-09-29T10:03:10.254Z,21.71
2017-09-29T10:04:11.677Z,21.82
2017-09-29T10:05:13.105Z,21.79
2017-09-29T10:06:14.527Z,21.91
2017-09-29T10:07:15.953Z,21.95
2017-09-29T10:08:17.394Z,22.16
2017-09-29T10:09:18.820Z,22.07
2017-09-29T10:10:20.255Z,22.09
2017-09-29T10:11:21.680Z,22.23
2017-09-29T10:12:23.110Z,22.29
2017-09-29T10:13:24.542Z,22.41
2017-09-29T10:14:25.974Z,22.25
2017-09-29T10:15:27.406Z,22.27
2017-09-29T10:16:28.832Z,22.37
2017-09-29T10:17:30.261Z,22.52
2017-09-29T10:18:31.701Z,22.38
2017-09-29T10:19:33.133Z,22.34
2017-09-29T10:20:34.565Z,22.27
2017-09-29T10:21:35.985Z,22.43
2017-09-29T10:22:37.457Z,22.41
2017-09-29T10:23:38.886Z,22.64
2017-09-29T10:24:40.321Z,22.41
2017-09-29T10:25:41.760Z,22.38
2017-09-29T10:26:43.198Z,22.44
2017-09-29T10:27:44.625Z,22.38
2017-09-29T10:28:46.057Z,22.53
2017-09-29T10:29:47.527Z,22.80
2017-09-29T10:30:48.965Z,22.74
2017-09-29T10:31:50.392Z,22.78
2017-09-29T10:32:51.829Z,22.77
2017-09-29T10:33:53.264Z,22.74
2017-09-29T10:34:54.696Z,22.83
2017-09-29T10:35:56.130Z,22.92
2017-09-29T10:36:57.582Z,23.08
2017-09-29T10:37:59.020Z,23.20
2017-09-29T10:39:00.461Z,23.15
2017-09-29T10:40:01.901Z,23.07
2017-09-29T10:41:03.330Z,22.90
2017-09-29T10:42:04.769Z,22.75
2017-09-29T10:43:06.221Z,22.87
2017-09-29T10:44:07.671Z,22.77
2017-09-29T10:45:09.085Z,22.75
2017-09-29T10:46:10.508Z,22.83
2017-09-29T10:47:11.941Z,22.57
2017-09-29T10:48:13.413Z,22.62
2017-09-29T10:49:14.844Z,22.75
2017-09-29T10:50:16.279Z,22.67
2017-09-29T10:51:17.711Z,22.90
2017-09-29T10:52:19.140Z,22.90
2017-09-29T10:53:20.591Z,22.89
2017-09-29T10:54:22.162Z,22.89
2017-09-29T10:55:23.603Z,22.94
2017-09-29T10:56:25.032Z,23.39
2017-09-29T10:57:26.462Z,23.49
2017-09-29T10:58:27.881Z,23.76
2017-09-29T10:59:29.322Z,23.60
2017-09-29T11:00:30.748Z,23.86
2017-09-29T11:01:32.199Z,23.65
2017-09-29T11:02:33.633Z,23.72
2017-09-29T11:03:35.065Z,23.65
2017-09-29T11:04:36.495Z,23.47
2017-09-29T11:05:37.927Z,23.64
2017-09-29T11:06:39.368Z,23.46
2017-09-29T11:07:40.797Z,23.26
2017-09-29T11:08:42.233Z,23.19
2017-09-29T11:09:43.669Z,23.38
2017-09-29T11:10:45.105Z,23.58
2017-09-29T11:11:46.534Z,23.70
2017-09-29T11:12:47.959Z,23.86
2017-09-29T11:13:49.393Z,23.86
2017-09-29T11:14:50.821Z,24.20
2017-09-29T11:15:52.271Z,24.23
2017-09-29T11:16:53.700Z,24.19
2017-09-29T11:17:55.127Z,24.00
2017-09-29T11:18:56.552Z,24.10
2017-09-29T11:19:57.988Z,23.97
2017-09-29T11:20:59.414Z,23.95
2017-09-29T11:22:00.843Z,23.70
2017-09-29T11:23:02.281Z,23.45
2017-09-29T11:24:03.723Z,23.32
2017-09-29T11:25:05.192Z,23.68
2017-09-29T11:26:06.611Z,23.85
2017-09-29T11:27:08.066Z,23.87
2017-09-29T11:28:09.506Z,24.22
2017-09-29T11:29:10.946Z,24.31
2017-09-29T11:30:12.398Z,24.44
2017-09-29T11:31:13.823Z,24.27
2017-09-29T11:32:15.252Z,24.38
2017-09-29T11:33:16.704Z,24.41
2017-09-29T11:34:18.138Z,24.53
2017-09-29T11:35:19.575Z,24.44
2017-09-29T11:36:21.010Z,24.60
2017-09-29T11:37:22.451Z,24.47
2017-09-29T11:38:23.887Z,24.44
2017-09-29T11:39:25.327Z,24.80
2017-09-29T11:40:26.765Z,24.90
2017-09-29T11:41:28.204Z,25.17
2017-09-29T11:42:29.634Z,25.13
2017-09-29T11:43:31.067Z,25.10
2017-09-29T11:44:32.509Z,25.17
2017-09-29T11:45:33.946Z,25.50
2017-09-29T11:46:35.375Z,25.84
2017-09-29T11:47:36.814Z,25.98
2017-09-29T11:48:38.245Z,26.44
2017-09-29T11:49:39.681Z,26.49
2017-09-29T11:50:41.110Z,26.86
2017-09-29T11:51:42.551Z,27.04
2017-09-29T11:52:44.535Z,27.04
2017-09-29T11:53:45.975Z,27.24
2017-09-29T11:54:47.411Z,27.13
2017-09-29T11:55:48.844Z,27.20
2017-09-29T11:56:50.288Z,27.42
2017-09-29T11:57:51.721Z,27.39
2017-09-29T11:58:53.166Z,27.84
2017-09-29T11:59:54.598Z,27.74
2017-09-29T12:00:56.028Z,27.67
2017-09-29T12:01:57.480Z,27.88
2017-09-29T12:02:58.905Z,27.98
2017-09-29T12:04:00.331Z,27.94
2017-09-29T12:05:01.830Z,28.16
2017-09-29T12:06:03.261Z,28.01
2017-09-29T12:07:04.692Z,27.84
2017-09-29T12:08:06.129Z,28.06
2017-09-29T12:09:07.555Z,28.19
2017-09-29T12:10:08.985Z,28.16
2017-09-29T12:11:10.425Z,27.20
2017-09-29T12:12:11.864Z,27.17
2017-09-29T12:13:13.309Z,27.17
2017-09-29T12:14:14.747Z,27.19
2017-09-29T12:15:16.191Z,27.33
2017-09-29T12:16:17.693Z,27.29
2017-09-29T12:17:19.120Z,27.09
2017-09-29T12:18:20.563Z,27.20
2017-09-29T12:19:21.998Z,27.31
2017-09-29T12:20:23.430Z,27.38
2017-09-29T12:21:24.862Z,26.52
2017-09-29T12:22:26.292Z,26.36
2017-09-29T12:23:27.794Z,26.55
2017-09-29T12:24:29.238Z,26.17
2017-09-29T12:25:30.683Z,25.93
2017-09-29T12:26:32.113Z,25.59
2017-09-29T12:27:33.551Z,25.72
2017-09-29T12:28:34.994Z,25.82
2017-09-29T12:29:36.425Z,25.39
2017-09-29T12:30:37.863Z,25.49
2017-09-29T12:31:39.310Z,26.02
2017-09-29T12:32:40.747Z,26.24
2017-09-29T12:33:42.180Z,26.17
2017-09-29T12:34:43.616Z,26.28
2017-09-29T12:35:45.057Z,26.43
2017-09-29T12:36:46.494Z,26.50
2017-09-29T12:37:47.960Z,26.29
2017-09-29T12:38:49.480Z,25.90
2017-09-29T12:39:50.915Z,25.75
2017-09-29T12:40:52.353Z,25.64
2017-09-29T12:41:53.784Z,25.20
2017-09-29T12:42:55.227Z,25.07
2017-09-29T12:43:56.660Z,25.25
2017-09-29T12:44:58.094Z,25.10
2017-09-29T12:45:59.520Z,25.02
2017-09-29T12:47:00.960Z,25.25
2017-09-29T12:48:02.394Z,26.52
2017-09-29T12:49:03.823Z,27.54
2017-09-29T12:50:05.261Z,27.88
2017-09-29T12:51:06.691Z,28.22
2017-09-29T12:52:08.133Z,28.07
2017-09-29T12:53:09.665Z,27.28
2017-09-29T12:54:11.101Z,26.89
2017-09-29T12:55:12.552Z,27.47
2017-09-29T12:56:13.986Z,27.84
2017-09-29T12:57:15.437Z,28.06
2017-09-29T12:58:16.864Z,28.14
2017-09-29T12:59:18.307Z,28.60
2017-09-29T13:00:19.771Z,28.41
2017-09-29T13:01:21.219Z,28.88
2017-09-29T13:02:22.658Z,29.22
2017-09-29T13:03:24.087Z,28.91
2017-09-29T13:04:25.523Z,28.82
2017-09-29T13:05:26.963Z,28.38
2017-09-29T13:06:28.399Z,27.88
2017-09-29T13:07:29.829Z,27.43
2017-09-29T13:08:31.283Z,27.54
2017-09-29T13:09:32.709Z,27.46
2017-09-29T13:10:34.175Z,27.24